sensor_id;sensor_type;location;lat;lon;timestamp;temperature;humidity
38784;DHT22;24531;45.502;12.238;2023-02-03T00:00:37;6.70;97.70
38784;DHT22;24531;45.502;12.238;2023-02-03T00:03:02;6.80;97.70
38784;DHT22;24531;45.502;12.238;2023-02-03T00:05:28;6.70;97.60
38784;DHT22;24531;45.502;12.238;2023-02-03T00:07:55;7.10;97.70
38784;DHT22;24531;45.502;12.238;2023-02-03T00:10:21;6.70;97.60
38784;DHT22;24531;45.502;12.238;2023-02-03T00:12:48;6.70;97.60
38784;DHT22;24531;45.502;12.238;2023-02-03T00:15:14;6.60;97.50
38784;DHT22;24531;45.502;12.238;2023-02-03T00:17:40;6.50;97.80
38784;DHT22;24531;45.502;12.238;2023-02-03T00:20:06;6.80;97.90
38784;DHT22;24531;45.502;12.238;2023-02-03T00:22:32;6.50;97.80
38784;DHT22;24531;45.502;12.238;2023-02-03T00:24:57;6.50;97.70
38784;DHT22;24531;45.502;12.238;2023-02-03T00:27:24;6.60;97.70
38784;DHT22;24531;45.502;12.238;2023-02-03T00:29:49;6.60;97.80
38784;DHT22;24531;45.502;12.238;2023-02-03T00:32:15;6.60;97.60
38784;DHT22;24531;45.502;12.238;2023-02-03T00:34:40;6.50;97.60
38784;DHT22;24531;45.502;12.238;2023-02-03T00:37:06;6.50;97.70
38784;DHT22;24531;45.502;12.238;2023-02-03T00:39:31;6.50;97.70
38784;DHT22;24531;45.502;12.238;2023-02-03T00:41:57;6.80;97.80
38784;DHT22;24531;45.502;12.238;2023-02-03T00:44:23;6.90;97.90
38784;DHT22;24531;45.502;12.238;2023-02-03T00:46:48;6.60;97.80
38784;DHT22;24531;45.502;12.238;2023-02-03T00:49:14;6.50;97.60
38784;DHT22;24531;45.502;12.238;2023-02-03T00:51:40;6.50;97.60
38784;DHT22;24531;45.502;12.238;2023-02-03T00:54:05;6.50;97.70
38784;DHT22;24531;45.502;12.238;2023-02-03T00:56:31;6.50;97.70
38784;DHT22;24531;45.502;12.238;2023-02-03T00:58:57;6.50;97.70
38784;DHT22;24531;45.502;12.238;2023-02-03T01:01:22;6.50;97.60
38784;DHT22;24531;45.502;12.238;2023-02-03T01:03:48;6.50;97.60
38784;DHT22;24531;45.502;12.238;2023-02-03T01:06:19;6.70;97.60
38784;DHT22;24531;45.502;12.238;2023-02-03T01:08:45;6.50;97.60
38784;DHT22;24531;45.502;12.238;2023-02-03T01:11:13;6.50;97.60
38784;DHT22;24531;45.502;12.238;2023-02-03T01:13:39;6.50;97.60
38784;DHT22;24531;45.502;12.238;2023-02-03T01:16:09;7.50;97.80
38784;DHT22;24531;45.502;12.238;2023-02-03T01:18:35;6.50;97.60
38784;DHT22;24531;45.502;12.238;2023-02-03T01:21:05;6.50;97.60
38784;DHT22;24531;45.502;12.238;2023-02-03T01:23:31;6.50;97.40
38784;DHT22;24531;45.502;12.238;2023-02-03T01:26:02;6.40;97.50
38784;DHT22;24531;45.502;12.238;2023-02-03T01:28:27;6.40;97.50
38784;DHT22;24531;45.502;12.238;2023-02-03T01:30:53;6.40;97.60
38784;DHT22;24531;45.502;12.238;2023-02-03T01:33:19;6.70;97.50
38784;DHT22;24531;45.502;12.238;2023-02-03T01:35:44;7.70;97.90
38784;DHT22;24531;45.502;12.238;2023-02-03T01:38:10;6.90;97.70
38784;DHT22;24531;45.502;12.238;2023-02-03T01:40:42;6.40;97.50
38784;DHT22;24531;45.502;12.238;2023-02-03T01:43:09;6.40;97.50
38784;DHT22;24531;45.502;12.238;2023-02-03T01:45:35;6.30;97.50
38784;DHT22;24531;45.502;12.238;2023-02-03T01:48:01;6.80;97.50
38784;DHT22;24531;45.502;12.238;2023-02-03T01:50:31;6.30;97.30
38784;DHT22;24531;45.502;12.238;2023-02-03T01:53:05;6.70;97.80
38784;DHT22;24531;45.502;12.238;2023-02-03T01:55:38;6.30;97.40
38784;DHT22;24531;45.502;12.238;2023-02-03T01:58:08;7.20;97.70
38784;DHT22;24531;45.502;12.238;2023-02-03T02:00:34;6.30;97.50
38784;DHT22;24531;45.502;12.238;2023-02-03T02:03:01;6.90;97.80
38784;DHT22;24531;45.502;12.238;2023-02-03T02:05:37;6.30;97.70
38784;DHT22;24531;45.502;12.238;2023-02-03T02:08:05;6.40;97.60
38784;DHT22;24531;45.502;12.238;2023-02-03T02:10:32;6.60;97.70
38784;DHT22;24531;45.502;12.238;2023-02-03T02:13:00;6.60;97.70
38784;DHT22;24531;45.502;12.238;2023-02-03T02:18:34;6.60;97.70
38784;DHT22;24531;45.502;12.238;2023-02-03T02:24:30;6.60;97.80
38784;DHT22;24531;45.502;12.238;2023-02-03T02:38:37;6.60;98.00
38784;DHT22;24531;45.502;12.238;2023-02-03T02:46:33;6.70;98.00
38784;DHT22;24531;45.502;12.238;2023-02-03T02:49:15;6.70;98.00
38784;DHT22;24531;45.502;12.238;2023-02-03T02:51:44;6.70;97.90
38784;DHT22;24531;45.502;12.238;2023-02-03T02:54:15;6.60;97.80
38784;DHT22;24531;45.502;12.238;2023-02-03T02:56:44;7.10;98.20
38784;DHT22;24531;45.502;12.238;2023-02-03T02:59:12;7.20;98.30
38784;DHT22;24531;45.502;12.238;2023-02-03T03:01:39;6.80;98.20
38784;DHT22;24531;45.502;12.238;2023-02-03T03:04:08;6.60;98.20
38784;DHT22;24531;45.502;12.238;2023-02-03T03:06:49;6.70;98.20
38784;DHT22;24531;45.502;12.238;2023-02-03T03:09:38;6.50;98.30
38784;DHT22;24531;45.502;12.238;2023-02-03T03:12:14;6.60;98.40
38784;DHT22;24531;45.502;12.238;2023-02-03T03:14:45;6.60;98.30
38784;DHT22;24531;45.502;12.238;2023-02-03T03:17:17;6.60;98.30
38784;DHT22;24531;45.502;12.238;2023-02-03T03:19:46;6.70;98.30
38784;DHT22;24531;45.502;12.238;2023-02-03T03:22:15;6.60;98.40
38784;DHT22;24531;45.502;12.238;2023-02-03T03:25:02;6.70;98.30
38784;DHT22;24531;45.502;12.238;2023-02-03T03:27:33;7.00;98.40
38784;DHT22;24531;45.502;12.238;2023-02-03T03:30:31;6.70;98.30
38784;DHT22;24531;45.502;12.238;2023-02-03T03:32:58;6.80;98.40
38784;DHT22;24531;45.502;12.238;2023-02-03T03:35:29;6.90;98.30
38784;DHT22;24531;45.502;12.238;2023-02-03T03:38:06;6.90;98.40
38784;DHT22;24531;45.502;12.238;2023-02-03T03:40:38;6.90;98.40
38784;DHT22;24531;45.502;12.238;2023-02-03T03:43:19;7.00;98.30
38784;DHT22;24531;45.502;12.238;2023-02-03T03:45:59;6.80;98.40
38784;DHT22;24531;45.502;12.238;2023-02-03T03:48:36;6.90;98.70
38784;DHT22;24531;45.502;12.238;2023-02-03T03:51:11;7.00;98.60
38784;DHT22;24531;45.502;12.238;2023-02-03T03:53:40;7.00;98.70
38784;DHT22;24531;45.502;12.238;2023-02-03T03:56:11;7.40;98.80
38784;DHT22;24531;45.502;12.238;2023-02-03T03:58:41;7.80;98.80
38784;DHT22;24531;45.502;12.238;2023-02-03T04:01:10;7.10;98.60
38784;DHT22;24531;45.502;12.238;2023-02-03T04:03:44;7.20;98.50
38784;DHT22;24531;45.502;12.238;2023-02-03T04:06:11;7.70;98.60
38784;DHT22;24531;45.502;12.238;2023-02-03T04:08:37;7.20;98.50
38784;DHT22;24531;45.502;12.238;2023-02-03T04:11:04;7.10;98.40
38784;DHT22;24531;45.502;12.238;2023-02-03T04:13:30;7.60;98.50
38784;DHT22;24531;45.502;12.238;2023-02-03T04:15:56;8.30;98.70
38784;DHT22;24531;45.502;12.238;2023-02-03T04:18:22;7.60;98.40
38784;DHT22;24531;45.502;12.238;2023-02-03T04:20:47;7.10;98.30
38784;DHT22;24531;45.502;12.238;2023-02-03T04:23:13;7.20;98.40
38784;DHT22;24531;45.502;12.238;2023-02-03T04:25:38;6.90;98.20
38784;DHT22;24531;45.502;12.238;2023-02-03T04:28:04;7.00;98.40
38784;DHT22;24531;45.502;12.238;2023-02-03T04:30:30;7.80;98.80
38784;DHT22;24531;45.502;12.238;2023-02-03T04:32:56;7.10;98.70
38784;DHT22;24531;45.502;12.238;2023-02-03T04:35:21;7.10;98.70
38784;DHT22;24531;45.502;12.238;2023-02-03T04:37:47;6.80;98.60
38784;DHT22;24531;45.502;12.238;2023-02-03T04:40:13;6.80;98.50
38784;DHT22;24531;45.502;12.238;2023-02-03T04:42:39;6.80;98.50
38784;DHT22;24531;45.502;12.238;2023-02-03T04:45:07;7.60;98.60
38784;DHT22;24531;45.502;12.238;2023-02-03T04:47:33;6.80;98.40
38784;DHT22;24531;45.502;12.238;2023-02-03T04:49:59;6.80;98.50
38784;DHT22;24531;45.502;12.238;2023-02-03T04:52:25;6.80;98.40
38784;DHT22;24531;45.502;12.238;2023-02-03T04:54:50;6.80;98.60
38784;DHT22;24531;45.502;12.238;2023-02-03T04:57:16;6.90;98.40
38784;DHT22;24531;45.502;12.238;2023-02-03T04:59:42;7.20;98.40
38784;DHT22;24531;45.502;12.238;2023-02-03T05:02:08;6.80;98.40
38784;DHT22;24531;45.502;12.238;2023-02-03T05:04:33;6.80;98.30
38784;DHT22;24531;45.502;12.238;2023-02-03T05:06:59;6.90;98.70
38784;DHT22;24531;45.502;12.238;2023-02-03T05:09:26;6.80;98.40
38784;DHT22;24531;45.502;12.238;2023-02-03T05:11:52;7.80;98.60
38784;DHT22;24531;45.502;12.238;2023-02-03T05:14:17;7.70;98.60
38784;DHT22;24531;45.502;12.238;2023-02-03T05:16:43;6.90;98.40
38784;DHT22;24531;45.502;12.238;2023-02-03T05:19:09;6.90;98.40
38784;DHT22;24531;45.502;12.238;2023-02-03T05:21:34;6.90;98.40
38784;DHT22;24531;45.502;12.238;2023-02-03T05:24:00;7.00;98.40
38784;DHT22;24531;45.502;12.238;2023-02-03T05:26:27;6.90;98.40
38784;DHT22;24531;45.502;12.238;2023-02-03T05:28:53;7.00;98.80
38784;DHT22;24531;45.502;12.238;2023-02-03T05:31:18;8.20;98.90
38784;DHT22;24531;45.502;12.238;2023-02-03T05:33:44;7.00;98.40
38784;DHT22;24531;45.502;12.238;2023-02-03T05:36:09;7.10;98.40
38784;DHT22;24531;45.502;12.238;2023-02-03T05:38:35;7.20;98.40
38784;DHT22;24531;45.502;12.238;2023-02-03T05:41:01;7.00;98.30
38784;DHT22;24531;45.502;12.238;2023-02-03T05:43:45;6.90;98.30
38784;DHT22;24531;45.502;12.238;2023-02-03T05:46:10;6.90;98.50
38784;DHT22;24531;45.502;12.238;2023-02-03T05:48:36;6.90;98.60
38784;DHT22;24531;45.502;12.238;2023-02-03T05:51:02;6.90;98.60
38784;DHT22;24531;45.502;12.238;2023-02-03T05:53:27;6.90;98.60
38784;DHT22;24531;45.502;12.238;2023-02-03T05:55:53;7.10;98.60
38784;DHT22;24531;45.502;12.238;2023-02-03T05:58:19;7.50;98.70
38784;DHT22;24531;45.502;12.238;2023-02-03T06:00:45;7.10;98.40
38784;DHT22;24531;45.502;12.238;2023-02-03T06:03:11;7.00;98.50
38784;DHT22;24531;45.502;12.238;2023-02-03T06:05:37;7.00;98.40
38784;DHT22;24531;45.502;12.238;2023-02-03T06:08:06;7.20;98.40
38784;DHT22;24531;45.502;12.238;2023-02-03T06:10:32;7.10;98.40
38784;DHT22;24531;45.502;12.238;2023-02-03T06:12:57;7.10;98.40
38784;DHT22;24531;45.502;12.238;2023-02-03T06:15:23;7.10;98.40
38784;DHT22;24531;45.502;12.238;2023-02-03T06:17:49;7.20;98.50
38784;DHT22;24531;45.502;12.238;2023-02-03T06:20:17;7.10;98.40
38784;DHT22;24531;45.502;12.238;2023-02-03T06:22:43;7.10;98.40
38784;DHT22;24531;45.502;12.238;2023-02-03T06:25:09;7.30;98.50
38784;DHT22;24531;45.502;12.238;2023-02-03T06:27:34;7.20;98.40
38784;DHT22;24531;45.502;12.238;2023-02-03T06:30:00;7.20;98.80
38784;DHT22;24531;45.502;12.238;2023-02-03T06:32:26;7.20;98.50
38784;DHT22;24531;45.502;12.238;2023-02-03T06:34:52;7.20;98.40
38784;DHT22;24531;45.502;12.238;2023-02-03T06:37:17;7.30;98.30
38784;DHT22;24531;45.502;12.238;2023-02-03T06:39:43;6.20;98.00
38784;DHT22;24531;45.502;12.238;2023-02-03T06:42:08;7.10;98.50
38784;DHT22;24531;45.502;12.238;2023-02-03T06:44:34;7.10;98.50
38784;DHT22;24531;45.502;12.238;2023-02-03T06:47:00;7.10;98.50
38784;DHT22;24531;45.502;12.238;2023-02-03T06:49:29;7.10;98.60
38784;DHT22;24531;45.502;12.238;2023-02-03T06:51:55;8.90;99.00
38784;DHT22;24531;45.502;12.238;2023-02-03T06:54:20;7.10;98.50
38784;DHT22;24531;45.502;12.238;2023-02-03T06:56:46;7.10;98.40
38784;DHT22;24531;45.502;12.238;2023-02-03T06:59:12;7.10;98.50
38784;DHT22;24531;45.502;12.238;2023-02-03T07:01:38;7.10;98.40
38784;DHT22;24531;45.502;12.238;2023-02-03T07:04:04;7.40;98.60
38784;DHT22;24531;45.502;12.238;2023-02-03T07:06:30;7.10;98.40
38784;DHT22;24531;45.502;12.238;2023-02-03T07:08:59;7.20;98.40
38784;DHT22;24531;45.502;12.238;2023-02-03T07:11:26;7.20;98.40
38784;DHT22;24531;45.502;12.238;2023-02-03T07:13:52;7.20;98.40
38784;DHT22;24531;45.502;12.238;2023-02-03T07:16:18;7.20;98.40
38784;DHT22;24531;45.502;12.238;2023-02-03T07:18:44;7.20;98.70
38784;DHT22;24531;45.502;12.238;2023-02-03T07:21:10;7.30;98.50
38784;DHT22;24531;45.502;12.238;2023-02-03T07:23:35;7.60;98.50
38784;DHT22;24531;45.502;12.238;2023-02-03T07:26:03;7.70;98.50
38784;DHT22;24531;45.502;12.238;2023-02-03T07:28:31;7.40;98.50
38784;DHT22;24531;45.502;12.238;2023-02-03T07:30:56;7.70;98.50
38784;DHT22;24531;45.502;12.238;2023-02-03T07:33:22;7.50;98.80
38784;DHT22;24531;45.502;12.238;2023-02-03T07:35:55;7.50;98.60
38784;DHT22;24531;45.502;12.238;2023-02-03T07:38:22;7.50;98.50
38784;DHT22;24531;45.502;12.238;2023-02-03T07:40:48;7.50;98.60
38784;DHT22;24531;45.502;12.238;2023-02-03T07:43:13;7.50;98.60
38784;DHT22;24531;45.502;12.238;2023-02-03T07:45:39;7.50;98.60
38784;DHT22;24531;45.502;12.238;2023-02-03T07:48:05;7.90;98.80
38784;DHT22;24531;45.502;12.238;2023-02-03T07:50:30;7.60;98.80
38784;DHT22;24531;45.502;12.238;2023-02-03T07:52:58;7.50;98.70
38784;DHT22;24531;45.502;12.238;2023-02-03T07:55:24;7.60;98.80
38784;DHT22;24531;45.502;12.238;2023-02-03T07:57:51;7.70;99.00
38784;DHT22;24531;45.502;12.238;2023-02-03T08:00:17;7.80;99.00
38784;DHT22;24531;45.502;12.238;2023-02-03T08:02:43;7.80;99.10
38784;DHT22;24531;45.502;12.238;2023-02-03T08:05:10;7.90;99.00
38784;DHT22;24531;45.502;12.238;2023-02-03T08:07:36;7.90;99.00
38784;DHT22;24531;45.502;12.238;2023-02-03T08:10:02;8.00;99.10
38784;DHT22;24531;45.502;12.238;2023-02-03T08:12:28;8.20;99.30
38784;DHT22;24531;45.502;12.238;2023-02-03T08:14:54;8.40;99.20
38784;DHT22;24531;45.502;12.238;2023-02-03T08:17:19;8.50;99.10
38784;DHT22;24531;45.502;12.238;2023-02-03T08:19:45;8.50;99.10
38784;DHT22;24531;45.502;12.238;2023-02-03T08:22:11;8.70;99.10
38784;DHT22;24531;45.502;12.238;2023-02-03T08:24:44;8.60;99.00
38784;DHT22;24531;45.502;12.238;2023-02-03T08:27:11;8.70;98.90
38784;DHT22;24531;45.502;12.238;2023-02-03T08:29:37;8.70;98.90
38784;DHT22;24531;45.502;12.238;2023-02-03T08:32:03;8.80;98.90
38784;DHT22;24531;45.502;12.238;2023-02-03T08:34:29;8.70;98.90
38784;DHT22;24531;45.502;12.238;2023-02-03T08:36:54;8.70;98.90
38784;DHT22;24531;45.502;12.238;2023-02-03T08:39:20;8.80;98.90
38784;DHT22;24531;45.502;12.238;2023-02-03T08:41:46;9.00;99.20
38784;DHT22;24531;45.502;12.238;2023-02-03T08:44:11;8.90;98.80
38784;DHT22;24531;45.502;12.238;2023-02-03T08:46:38;8.90;98.70
38784;DHT22;24531;45.502;12.238;2023-02-03T08:49:09;8.90;98.70
38784;DHT22;24531;45.502;12.238;2023-02-03T08:51:35;8.90;98.60
38784;DHT22;24531;45.502;12.238;2023-02-03T08:54:00;8.90;98.70
38784;DHT22;24531;45.502;12.238;2023-02-03T08:56:26;9.40;98.90
38784;DHT22;24531;45.502;12.238;2023-02-03T08:58:53;9.00;98.70
38784;DHT22;24531;45.502;12.238;2023-02-03T09:01:18;9.00;98.80
38784;DHT22;24531;45.502;12.238;2023-02-03T09:03:44;9.10;98.90
38784;DHT22;24531;45.502;12.238;2023-02-03T09:06:10;9.50;99.00
38784;DHT22;24531;45.502;12.238;2023-02-03T09:08:38;9.30;98.80
38784;DHT22;24531;45.502;12.238;2023-02-03T09:11:08;9.40;98.80
38784;DHT22;24531;45.502;12.238;2023-02-03T09:13:34;9.40;98.80
38784;DHT22;24531;45.502;12.238;2023-02-03T09:16:00;9.60;98.80
38784;DHT22;24531;45.502;12.238;2023-02-03T09:18:25;9.70;98.80
38784;DHT22;24531;45.502;12.238;2023-02-03T09:20:51;9.70;98.70
38784;DHT22;24531;45.502;12.238;2023-02-03T09:23:16;9.80;98.60
38784;DHT22;24531;45.502;12.238;2023-02-03T09:25:42;9.80;98.50
38784;DHT22;24531;45.502;12.238;2023-02-03T09:28:07;9.80;98.50
38784;DHT22;24531;45.502;12.238;2023-02-03T09:30:33;9.80;98.50
38784;DHT22;24531;45.502;12.238;2023-02-03T09:32:59;9.90;98.40
38784;DHT22;24531;45.502;12.238;2023-02-03T09:35:24;9.90;98.30
38784;DHT22;24531;45.502;12.238;2023-02-03T09:37:51;9.90;98.20
38784;DHT22;24531;45.502;12.238;2023-02-03T09:40:24;10.00;98.20
38784;DHT22;24531;45.502;12.238;2023-02-03T09:43:50;10.00;98.20
38784;DHT22;24531;45.502;12.238;2023-02-03T09:45:49;10.00;98.10
38784;DHT22;24531;45.502;12.238;2023-02-03T09:48:21;10.10;98.10
38784;DHT22;24531;45.502;12.238;2023-02-03T09:50:49;10.20;98.20
38784;DHT22;24531;45.502;12.238;2023-02-03T09:53:30;10.30;98.10
38784;DHT22;24531;45.502;12.238;2023-02-03T09:55:58;10.40;98.10
38784;DHT22;24531;45.502;12.238;2023-02-03T09:58:27;10.50;98.00
38784;DHT22;24531;45.502;12.238;2023-02-03T10:00:56;10.70;98.10
38784;DHT22;24531;45.502;12.238;2023-02-03T10:09:12;10.80;97.80
38784;DHT22;24531;45.502;12.238;2023-02-03T10:12:02;10.10;97.70
38784;DHT22;24531;45.502;12.238;2023-02-03T10:22:46;11.00;97.60
38784;DHT22;24531;45.502;12.238;2023-02-03T10:28:20;10.90;97.30
38784;DHT22;24531;45.502;12.238;2023-02-03T10:31:19;11.00;97.40
38784;DHT22;24531;45.502;12.238;2023-02-03T10:33:46;11.00;97.50
38784;DHT22;24531;45.502;12.238;2023-02-03T10:36:20;11.10;97.40
38784;DHT22;24531;45.502;12.238;2023-02-03T10:41:12;11.20;97.30
38784;DHT22;24531;45.502;12.238;2023-02-03T10:43:39;11.30;97.20
38784;DHT22;24531;45.502;12.238;2023-02-03T10:46:29;11.40;97.30
38784;DHT22;24531;45.502;12.238;2023-02-03T10:48:55;11.50;97.10
38784;DHT22;24531;45.502;12.238;2023-02-03T10:53:49;11.70;97.10
38784;DHT22;24531;45.502;12.238;2023-02-03T10:56:20;11.80;96.80
38784;DHT22;24531;45.502;12.238;2023-02-03T10:58:49;11.80;96.70
38784;DHT22;24531;45.502;12.238;2023-02-03T11:01:18;11.90;96.70
38784;DHT22;24531;45.502;12.238;2023-02-03T11:04:00;11.90;96.60
38784;DHT22;24531;45.502;12.238;2023-02-03T11:06:27;12.00;96.40
38784;DHT22;24531;45.502;12.238;2023-02-03T11:08:53;12.10;96.40
38784;DHT22;24531;45.502;12.238;2023-02-03T11:16:27;12.30;96.20
38784;DHT22;24531;45.502;12.238;2023-02-03T11:24:25;12.40;96.00
38784;DHT22;24531;45.502;12.238;2023-02-03T11:29:25;12.40;95.70
38784;DHT22;24531;45.502;12.238;2023-02-03T11:31:54;12.50;95.80
38784;DHT22;24531;45.502;12.238;2023-02-03T11:34:27;12.40;95.70
38784;DHT22;24531;45.502;12.238;2023-02-03T11:36:53;12.40;95.70
38784;DHT22;24531;45.502;12.238;2023-02-03T11:39:24;12.40;95.70
38784;DHT22;24531;45.502;12.238;2023-02-03T11:41:50;12.40;95.70
38784;DHT22;24531;45.502;12.238;2023-02-03T11:46:58;12.60;95.70
38784;DHT22;24531;45.502;12.238;2023-02-03T11:49:34;12.60;95.60
38784;DHT22;24531;45.502;12.238;2023-02-03T11:52:31;12.70;95.50
38784;DHT22;24531;45.502;12.238;2023-02-03T11:55:20;12.70;95.40
38784;DHT22;24531;45.502;12.238;2023-02-03T11:58:14;12.70;95.30
38784;DHT22;24531;45.502;12.238;2023-02-03T12:12:22;12.60;95.10
38784;DHT22;24531;45.502;12.238;2023-02-03T12:17:44;12.70;95.10
38784;DHT22;24531;45.502;12.238;2023-02-03T12:22:53;12.80;95.10
38784;DHT22;24531;45.502;12.238;2023-02-03T12:28:24;12.80;95.00
38784;DHT22;24531;45.502;12.238;2023-02-03T12:31:03;12.80;95.10
38784;DHT22;24531;45.502;12.238;2023-02-03T12:33:44;12.80;95.10
38784;DHT22;24531;45.502;12.238;2023-02-03T12:36:20;12.80;95.10
38784;DHT22;24531;45.502;12.238;2023-02-03T12:38:55;12.80;95.10
38784;DHT22;24531;45.502;12.238;2023-02-03T12:41:34;12.80;95.10
38784;DHT22;24531;45.502;12.238;2023-02-03T12:44:04;12.80;95.10
38784;DHT22;24531;45.502;12.238;2023-02-03T12:46:40;12.90;95.20
38784;DHT22;24531;45.502;12.238;2023-02-03T12:49:18;12.90;95.10
38784;DHT22;24531;45.502;12.238;2023-02-03T12:51:58;13.60;95.30
38784;DHT22;24531;45.502;12.238;2023-02-03T12:54:46;12.90;95.10
38784;DHT22;24531;45.502;12.238;2023-02-03T12:59:41;12.90;95.20
38784;DHT22;24531;45.502;12.238;2023-02-03T13:02:21;12.80;95.20
38784;DHT22;24531;45.502;12.238;2023-02-03T13:04:59;12.80;95.30
38784;DHT22;24531;45.502;12.238;2023-02-03T13:07:31;12.80;95.20
38784;DHT22;24531;45.502;12.238;2023-02-03T13:10:11;12.80;95.30
38784;DHT22;24531;45.502;12.238;2023-02-03T13:12:43;12.80;95.20
38784;DHT22;24531;45.502;12.238;2023-02-03T13:20:40;12.70;95.20
38784;DHT22;24531;45.502;12.238;2023-02-03T13:23:10;12.70;95.10
38784;DHT22;24531;45.502;12.238;2023-02-03T13:42:13;12.70;95.20
38784;DHT22;24531;45.502;12.238;2023-02-03T13:44:44;12.80;95.00
38784;DHT22;24531;45.502;12.238;2023-02-03T13:47:18;12.70;95.10
38784;DHT22;24531;45.502;12.238;2023-02-03T13:49:50;12.70;95.20
38784;DHT22;24531;45.502;12.238;2023-02-03T13:52:44;12.70;95.20
38784;DHT22;24531;45.502;12.238;2023-02-03T13:57:54;12.70;95.10
38784;DHT22;24531;45.502;12.238;2023-02-03T14:05:51;12.80;95.20
38784;DHT22;24531;45.502;12.238;2023-02-03T14:16:38;12.80;95.20
38784;DHT22;24531;45.502;12.238;2023-02-03T14:19:08;12.80;95.10
38784;DHT22;24531;45.502;12.238;2023-02-03T14:21:51;12.80;95.20
38784;DHT22;24531;45.502;12.238;2023-02-03T14:24:19;12.80;95.20
38784;DHT22;24531;45.502;12.238;2023-02-03T14:26:51;12.80;95.30
38784;DHT22;24531;45.502;12.238;2023-02-03T14:29:37;12.80;95.30
38784;DHT22;24531;45.502;12.238;2023-02-03T14:32:12;12.80;95.30
38784;DHT22;24531;45.502;12.238;2023-02-03T14:34:46;12.70;95.30
38784;DHT22;24531;45.502;12.238;2023-02-03T14:37:20;12.80;95.40
38784;DHT22;24531;45.502;12.238;2023-02-03T14:43:17;12.80;95.30
38784;DHT22;24531;45.502;12.238;2023-02-03T14:48:45;12.90;95.10
38784;DHT22;24531;45.502;12.238;2023-02-03T14:56:25;12.70;95.40
38784;DHT22;24531;45.502;12.238;2023-02-03T14:59:00;12.70;95.40
38784;DHT22;24531;45.502;12.238;2023-02-03T15:06:54;12.50;95.30
38784;DHT22;24531;45.502;12.238;2023-02-03T15:09:43;12.40;95.30
38784;DHT22;24531;45.502;12.238;2023-02-03T15:12:24;12.30;95.40
38784;DHT22;24531;45.502;12.238;2023-02-03T15:14:54;12.30;95.50
38784;DHT22;24531;45.502;12.238;2023-02-03T15:17:36;12.20;95.50
38784;DHT22;24531;45.502;12.238;2023-02-03T15:22:45;12.00;95.50
38784;DHT22;24531;45.502;12.238;2023-02-03T15:25:16;12.00;95.70
38784;DHT22;24531;45.502;12.238;2023-02-03T15:27:43;12.00;95.80
38784;DHT22;24531;45.502;12.238;2023-02-03T15:30:23;12.00;95.70
38784;DHT22;24531;45.502;12.238;2023-02-03T15:33:12;12.00;95.60
38784;DHT22;24531;45.502;12.238;2023-02-03T15:35:40;11.90;95.70
38784;DHT22;24531;45.502;12.238;2023-02-03T15:38:11;11.80;95.80
38784;DHT22;24531;45.502;12.238;2023-02-03T15:40:47;11.70;95.80
38784;DHT22;24531;45.502;12.238;2023-02-03T15:43:30;11.60;95.90
38784;DHT22;24531;45.502;12.238;2023-02-03T15:46:16;11.50;96.00
38784;DHT22;24531;45.502;12.238;2023-02-03T15:51:26;11.40;96.10
38784;DHT22;24531;45.502;12.238;2023-02-03T15:54:02;11.40;96.20
38784;DHT22;24531;45.502;12.238;2023-02-03T15:56:54;11.40;96.20
38784;DHT22;24531;45.502;12.238;2023-02-03T15:59:32;11.30;96.30
38784;DHT22;24531;45.502;12.238;2023-02-03T16:02:01;11.20;96.30
38784;DHT22;24531;45.502;12.238;2023-02-03T16:04:30;11.20;96.40
38784;DHT22;24531;45.502;12.238;2023-02-03T16:06:57;11.20;96.50
38784;DHT22;24531;45.502;12.238;2023-02-03T16:12:02;11.10;96.60
38784;DHT22;24531;45.502;12.238;2023-02-03T16:14:35;11.10;96.60
38784;DHT22;24531;45.502;12.238;2023-02-03T16:17:01;11.00;96.50
38784;DHT22;24531;45.502;12.238;2023-02-03T16:19:28;10.90;96.60
38784;DHT22;24531;45.502;12.238;2023-02-03T16:21:56;10.90;96.90
38784;DHT22;24531;45.502;12.238;2023-02-03T16:24:40;10.90;97.10
38784;DHT22;24531;45.502;12.238;2023-02-03T16:30:23;11.00;96.80
38784;DHT22;24531;45.502;12.238;2023-02-03T16:35:56;11.10;96.60
38784;DHT22;24531;45.502;12.238;2023-02-03T16:39:01;11.10;96.40
38784;DHT22;24531;45.502;12.238;2023-02-03T16:41:46;11.00;96.70
38784;DHT22;24531;45.502;12.238;2023-02-03T16:44:30;11.00;96.60
38784;DHT22;24531;45.502;12.238;2023-02-03T16:47:27;11.00;96.50
38784;DHT22;24531;45.502;12.238;2023-02-03T16:50:19;10.80;96.70
38784;DHT22;24531;45.502;12.238;2023-02-03T16:53:04;10.70;96.70
38784;DHT22;24531;45.502;12.238;2023-02-03T16:55:30;10.60;96.90
38784;DHT22;24531;45.502;12.238;2023-02-03T16:57:56;10.50;97.10
38784;DHT22;24531;45.502;12.238;2023-02-03T17:00:22;10.50;97.20
38784;DHT22;24531;45.502;12.238;2023-02-03T17:02:49;10.40;97.20
38784;DHT22;24531;45.502;12.238;2023-02-03T17:05:16;10.40;97.40
38784;DHT22;24531;45.502;12.238;2023-02-03T17:07:42;10.30;97.50
38784;DHT22;24531;45.502;12.238;2023-02-03T17:10:08;10.30;97.60
38784;DHT22;24531;45.502;12.238;2023-02-03T17:12:34;10.30;97.60
38784;DHT22;24531;45.502;12.238;2023-02-03T17:15:05;10.30;97.70
38784;DHT22;24531;45.502;12.238;2023-02-03T17:17:30;10.30;97.70
38784;DHT22;24531;45.502;12.238;2023-02-03T17:19:56;10.40;97.70
38784;DHT22;24531;45.502;12.238;2023-02-03T17:22:26;10.40;97.60
38784;DHT22;24531;45.502;12.238;2023-02-03T17:24:52;10.40;97.60
38784;DHT22;24531;45.502;12.238;2023-02-03T17:27:18;10.30;97.70
38784;DHT22;24531;45.502;12.238;2023-02-03T17:29:44;10.30;97.80
38784;DHT22;24531;45.502;12.238;2023-02-03T17:32:10;10.30;97.90
38784;DHT22;24531;45.502;12.238;2023-02-03T17:34:39;10.30;98.00
38784;DHT22;24531;45.502;12.238;2023-02-03T17:37:05;10.30;98.00
38784;DHT22;24531;45.502;12.238;2023-02-03T17:39:31;10.30;97.90
38784;DHT22;24531;45.502;12.238;2023-02-03T17:41:57;10.30;98.00
38784;DHT22;24531;45.502;12.238;2023-02-03T17:44:22;10.30;98.00
38784;DHT22;24531;45.502;12.238;2023-02-03T17:46:48;10.30;98.10
38784;DHT22;24531;45.502;12.238;2023-02-03T17:49:13;10.30;98.00
38784;DHT22;24531;45.502;12.238;2023-02-03T17:51:39;10.30;98.00
38784;DHT22;24531;45.502;12.238;2023-02-03T17:54:05;10.30;98.10
38784;DHT22;24531;45.502;12.238;2023-02-03T17:56:32;10.30;98.00
38784;DHT22;24531;45.502;12.238;2023-02-03T17:59:01;10.40;98.00
38784;DHT22;24531;45.502;12.238;2023-02-03T18:01:28;10.40;97.80
38784;DHT22;24531;45.502;12.238;2023-02-03T18:03:55;10.30;97.80
38784;DHT22;24531;45.502;12.238;2023-02-03T18:06:22;10.30;98.00
38784;DHT22;24531;45.502;12.238;2023-02-03T18:08:49;10.30;98.00
38784;DHT22;24531;45.502;12.238;2023-02-03T18:11:16;10.20;97.90
38784;DHT22;24531;45.502;12.238;2023-02-03T18:13:45;10.20;98.20